Time;durP1;ratioP1;P1;durP2;ratioP2;P2;SDS_P1;SDS_P2;PMS_P1;PMS_P2;Temp;Humidity;BMP_temperature;BMP_pressure;BME280_temperature;BME280_humidity;BME280_pressure;Samples;Min_cycle;Max_cycle;Signal;HPM_P1;HPM_P2
2023/07/24 00:02:20;;;;;;;1.70;1.60;;;;;;;17.93;100.00;99600.13;7753818;22;20098;-96
2023/07/24 00:05:23;;;;;;;1.50;1.40;;;;;;;17.92;100.00;99593.28;7780912;22;20015;-96
2023/07/24 00:08:26;;;;;;;1.80;1.50;;;;;;;17.96;100.00;99586.69;7781415;22;20023;-96
2023/07/24 00:11:28;;;;;;;3.33;2.10;;;;;;;17.94;100.00;99575.59;7753498;22;20038;-96
2023/07/24 00:14:31;;;;;;;2.40;1.80;;;;;;;17.94;100.00;99588.69;7777754;22;20019;-96
2023/07/24 00:17:33;;;;;;;2.47;1.70;;;;;;;17.94;100.00;99580.03;7776723;22;20020;-96
2023/07/24 00:20:35;;;;;;;1.95;1.75;;;;;;;17.89;100.00;99577.16;7750236;22;20024;-96
2023/07/24 00:23:37;;;;;;;2.00;1.80;;;;;;;17.81;100.00;99578.94;7777796;22;20019;-96
2023/07/24 00:26:40;;;;;;;1.73;1.60;;;;;;;17.89;100.00;99577.16;7749841;22;20035;-96
2023/07/24 00:29:42;;;;;;;2.22;1.85;;;;;;;17.87;100.00;99559.03;7749165;22;20020;-96
2023/07/24 00:32:44;;;;;;;1.63;1.52;;;;;;;17.85;100.00;99566.25;7749483;22;20023;-96
2023/07/24 00:35:46;;;;;;;2.03;1.90;;;;;;;17.78;100.00;99560.94;7749281;22;20026;-96
2023/07/24 00:38:49;;;;;;;1.90;1.70;;;;;;;17.65;100.00;99568.72;7749869;22;20015;-96
2023/07/24 00:41:51;;;;;;;1.95;1.85;;;;;;;17.68;100.00;99565.72;7776267;22;20099;-96
2023/07/24 00:44:55;;;;;;;2.13;1.95;;;;;;;17.74;100.00;99567.59;7775972;22;20102;-96
2023/07/24 00:47:59;;;;;;;2.50;2.30;;;;;;;17.78;100.00;99578.47;7724211;22;20031;-96
2023/07/24 00:51:01;;;;;;;2.33;2.13;;;;;;;17.83;100.00;99578.72;7749575;22;20240;-96
2023/07/24 00:54:05;;;;;;;3.80;2.38;;;;;;;17.95;100.00;99571.97;7775178;22;20263;-96
2023/07/24 00:57:07;;;;;;;3.15;2.70;;;;;;;18.06;100.00;99576.66;7776706;22;20091;-96
2023/07/24 01:00:10;;;;;;;3.08;2.42;;;;;;;18.10;100.00;99556.13;7750162;22;20778;-96
2023/07/24 01:03:12;;;;;;;2.70;2.50;;;;;;;18.18;100.00;99558.56;7724252;22;20034;-96
2023/07/24 01:06:15;;;;;;;4.00;3.00;;;;;;;18.14;100.00;99552.13;7751496;22;20376;-95
2023/07/24 01:09:17;;;;;;;3.35;3.05;;;;;;;18.22;100.00;99556.38;7777434;22;20015;-96
2023/07/24 01:12:30;;;;;;;3.65;2.63;;;;;;;18.24;100.00;99544.72;7749747;22;20346;-96
2023/07/24 01:15:35;;;;;;;3.20;2.80;;;;;;;18.16;100.00;99538.81;7776281;22;20024;-96
2023/07/24 01:18:38;;;;;;;3.80;2.90;;;;;;;18.11;100.00;99544.66;7778451;22;20539;-95
2023/07/24 01:22:13;;;;;;;3.17;2.88;;;;;;;18.16;100.00;99544.88;7778837;22;20091;-95
2023/07/24 01:25:40;;;;;;;3.75;3.15;;;;;;;18.18;100.00;99547.28;7749861;22;20128;-96
2023/07/24 01:28:43;;;;;;;3.63;3.20;;;;;;;18.15;100.00;99545.06;7752699;22;20039;-96
2023/07/24 01:31:47;;;;;;;3.63;3.10;;;;;;;18.04;100.00;99539.38;7752130;22;20027;-96
2023/07/24 01:34:49;;;;;;;4.13;3.33;;;;;;;17.92;100.00;99542.75;7750784;22;20035;-96
2023/07/24 01:37:52;;;;;;;4.57;3.50;;;;;;;17.85;100.00;99548.75;7751286;22;20023;-96
2023/07/24 01:40:54;;;;;;;3.25;2.88;;;;;;;17.85;100.00;99540.88;7779099;22;20036;-96
2023/07/24 01:43:59;;;;;;;6.03;3.50;;;;;;;17.85;100.00;99537.47;7752367;22;20345;-96
2023/07/24 01:47:01;;;;;;;3.42;3.13;;;;;;;17.92;100.00;99535.69;7752734;22;20066;-96
2023/07/24 01:50:04;;;;;;;3.17;2.88;;;;;;;18.04;100.00;99533.34;7779324;22;20082;-96
2023/07/24 01:53:06;;;;;;;3.85;2.75;;;;;;;18.15;100.00;99530.16;7779115;22;20150;-96
2023/07/24 01:56:08;;;;;;;3.13;2.85;;;;;;;18.25;100.00;99524.56;7780536;22;20019;-96
2023/07/24 01:59:10;;;;;;;3.92;3.03;;;;;;;18.27;100.00;99523.34;7751472;22;20481;-96
2023/07/24 02:02:12;;;;;;;3.70;3.28;;;;;;;18.26;100.00;99520.91;7751285;22;20016;-96
2023/07/24 02:05:14;;;;;;;3.75;2.97;;;;;;;18.29;100.00;99529.22;7751582;22;20019;-96
2023/07/24 02:08:17;;;;;;;3.75;3.25;;;;;;;18.25;100.00;99525.34;7726702;22;20030;-96
2023/07/24 02:11:19;;;;;;;3.78;2.95;;;;;;;18.28;100.00;99516.28;7750853;22;20019;-95
2023/07/24 02:14:22;;;;;;;4.10;3.03;;;;;;;18.25;100.00;99514.88;7725572;22;20055;-95
2023/07/24 02:17:24;;;;;;;4.20;3.08;;;;;;;18.23;100.00;99516.88;7778261;22;20019;-96
2023/07/24 02:20:26;;;;;;;5.93;3.10;;;;;;;18.15;100.00;99509.19;7778836;22;20023;-96
2023/07/24 02:23:30;;;;;;;3.58;3.28;;;;;;;17.92;100.00;99506.88;7778389;22;20492;-96
2023/07/24 02:26:32;;;;;;;4.25;3.40;;;;;;;17.76;100.00;99515.84;7751473;22;20042;-95
2023/07/24 02:29:37;;;;;;;4.07;3.50;;;;;;;17.68;100.00;99508.13;7752017;22;20047;-96
2023/07/24 02:32:39;;;;;;;4.20;3.00;;;;;;;17.71;100.00;99515.59;7777985;22;20026;-95
2023/07/24 02:35:42;;;;;;;3.58;3.28;;;;;;;17.69;100.00;99511.56;7778176;22;20277;-95
2023/07/24 02:38:44;;;;;;;4.10;3.70;;;;;;;17.66;100.00;99517.97;7751314;22;20094;-95
2023/07/24 02:41:47;;;;;;;5.50;3.25;;;;;;;17.71;100.00;99512.97;7777502;22;20035;-95
2023/07/24 02:44:50;;;;;;;3.65;3.35;;;;;;;17.57;100.00;99514.72;7751439;22;20027;-96
2023/07/24 02:47:52;;;;;;;3.67;3.38;;;;;;;17.53;100.00;99520.53;7778676;22;20023;-96
2023/07/24 02:50:55;;;;;;;5.10;3.30;;;;;;;17.50;100.00;99510.44;7777314;22;20019;-96
2023/07/24 02:53:57;;;;;;;3.38;3.08;;;;;;;17.48;100.00;99520.28;7749595;22;20511;-96
2023/07/24 02:56:59;;;;;;;3.30;2.80;;;;;;;17.30;100.00;99511.09;7747772;22;20019;-96
2023/07/24 03:00:01;;;;;;;3.38;2.60;;;;;;;17.29;100.00;99511.28;7777791;22;20047;-95
2023/07/24 03:03:04;;;;;;;3.53;2.60;;;;;;;17.26;100.00;99514.28;7750696;22;20446;-96
2023/07/24 03:06:08;;;;;;;2.58;2.33;;;;;;;17.25;100.00;99505.63;7750356;22;20097;-96
2023/07/24 03:09:11;;;;;;;2.95;2.10;;;;;;;17.16;100.00;99506.75;7777983;22;20122;-96
2023/07/24 03:12:13;;;;;;;2.22;2.03;;;;;;;17.21;100.00;99501.78;7750613;22;20099;-96
2023/07/24 03:15:15;;;;;;;4.05;2.17;;;;;;;17.17;100.00;99505.78;7750388;22;20026;-96
2023/07/24 03:18:17;;;;;;;3.28;2.10;;;;;;;17.09;100.00;99518.97;7750243;22;20051;-96
2023/07/24 03:21:20;;;;;;;2.22;1.88;;;;;;;17.08;100.00;99518.16;7777650;22;20020;-96
2023/07/24 03:24:23;;;;;;;3.33;2.03;;;;;;;17.20;100.00;99528.94;7750774;22;20015;-96
2023/07/24 03:27:24;;;;;;;2.22;2.03;;;;;;;17.28;100.00;99520.16;7751155;22;20027;-96
2023/07/24 03:30:26;;;;;;;3.53;2.20;;;;;;;17.29;100.00;99517.34;7777642;22;20020;-95
2023/07/24 03:33:29;;;;;;;2.22;2.03;;;;;;;17.39;100.00;99512.59;7777104;22;20437;-96
2023/07/24 03:36:35;;;;;;;3.92;1.75;;;;;;;17.33;100.00;99505.50;7751078;22;20022;-96
2023/07/24 03:39:38;;;;;;;3.08;2.10;;;;;;;17.37;100.00;99511.16;7751032;22;20020;-96
2023/07/24 03:42:41;;;;;;;3.28;2.03;;;;;;;17.35;100.00;99493.03;7725389;22;20432;-96
2023/07/24 03:45:43;;;;;;;2.08;1.65;;;;;;;17.25;100.00;99502.22;7750372;22;20062;-96
2023/07/24 03:48:45;;;;;;;2.50;1.90;;;;;;;17.25;100.00;99497.00;7777822;22;20015;-96
2023/07/24 03:51:48;;;;;;;3.50;3.20;;;;;;;17.29;100.00;99485.13;7749438;22;20066;-96
2023/07/24 03:54:57;;;;;;;3.10;2.05;;;;;;;17.32;100.00;99485.56;7750710;22;20027;-96
2023/07/24 03:57:59;;;;;;;3.75;1.95;;;;;;;17.35;100.00;99474.72;7750161;22;20553;-95
2023/07/24 04:01:02;;;;;;;2.72;2.10;;;;;;;17.28;100.00;99478.28;7748899;22;20027;-96
2023/07/24 04:04:04;;;;;;;3.05;2.22;;;;;;;17.29;100.00;99467.66;7750556;22;20053;-95
2023/07/24 04:07:06;;;;;;;2.88;2.20;;;;;;;17.29;100.00;99477.28;7750565;22;20020;-96
2023/07/24 04:10:10;;;;;;;2.80;2.17;;;;;;;17.33;100.00;99457.59;7777004;22;20335;-96
2023/07/24 04:13:11;;;;;;;3.88;2.13;;;;;;;17.23;100.00;99443.03;7748751;22;20362;-96
2023/07/24 04:16:14;;;;;;;2.10;1.77;;;;;;;17.26;100.00;99444.47;7776795;22;20046;-96
2023/07/24 04:19:16;;;;;;;2.72;1.95;;;;;;;17.33;100.00;99452.38;7778341;22;20015;-96
2023/07/24 04:22:18;;;;;;;4.10;2.05;;;;;;;17.47;100.00;99445.41;7750626;22;20342;-95
2023/07/24 04:25:20;;;;;;;2.85;1.88;;;;;;;17.47;100.00;99442.81;7750124;22;20020;-96
2023/07/24 04:28:22;;;;;;;3.30;2.40;;;;;;;17.48;100.00;99433.94;7750637;22;20039;-96
2023/07/24 04:31:24;;;;;;;2.55;2.20;;;;;;;17.36;100.00;99437.09;7749910;22;20098;-96
2023/07/24 04:34:26;;;;;;;3.70;2.17;;;;;;;17.40;100.00;99434.91;7723711;22;20030;-95
2023/07/24 04:37:28;;;;;;;2.90;2.10;;;;;;;17.46;100.00;99434.13;7775582;22;20488;-96
2023/07/24 04:40:30;;;;;;;1.83;1.58;;;;;;;17.41;100.00;99433.91;7749616;22;20029;-95
2023/07/24 04:43:32;;;;;;;2.38;2.03;;;;;;;17.37;100.00;99448.38;7777020;22;20027;-96
2023/07/24 04:46:34;;;;;;;2.88;2.00;;;;;;;17.33;100.00;99437.47;7749182;22;20015;-96
2023/07/24 04:49:37;;;;;;;4.55;2.30;;;;;;;17.37;100.00;99443.94;7750999;22;20020;-95
2023/07/24 04:52:39;;;;;;;2.50;2.10;;;;;;;17.49;100.00;99433.75;7749948;22;20442;-96
2023/07/24 04:55:45;;;;;;;3.75;2.22;;;;;;;17.59;100.00;99441.25;7776599;22;20019;-96
2023/07/24 04:58:47;;;;;;;2.90;2.05;;;;;;;17.57;100.00;99424.94;7776866;22;20020;-96
2023/07/24 05:01:50;;;;;;;2.88;2.05;;;;;;;17.55;100.00;99425.13;7723847;22;20023;-96
2023/07/24 05:04:52;;;;;;;2.47;1.80;;;;;;;17.52;100.00;99409.03;7748771;22;20020;-96
2023/07/24 05:07:54;;;;;;;3.05;2.13;;;;;;;17.51;100.00;99399.53;7750260;22;20384;-96
2023/07/24 05:10:58;;;;;;;2.63;1.73;;;;;;;17.67;100.00;99412.31;7749420;22;20449;-95
2023/07/24 05:14:00;;;;;;;2.05;1.85;;;;;;;18.01;100.00;99405.41;7777301;22;20026;-96
2023/07/24 05:17:03;;;;;;;2.65;1.70;;;;;;;18.44;100.00;99399.84;7776085;22;20020;-96
2023/07/24 05:20:07;;;;;;;1.90;1.70;;;;;;;18.82;100.00;99389.59;7750435;22;20445;-96
2023/07/24 05:23:09;;;;;;;2.08;1.77;;;;;;;19.08;100.00;99399.28;7777083;22;20031;-96
2023/07/24 05:26:11;;;;;;;3.50;1.85;;;;;;;19.13;100.00;99388.16;7724145;22;20024;-96
2023/07/24 05:29:13;;;;;;;2.15;1.75;;;;;;;19.13;100.00;99399.47;7777389;22;20020;-96
2023/07/24 05:32:15;;;;;;;3.22;1.75;;;;;;;19.10;100.00;99402.47;7750131;22;20019;-96
2023/07/24 05:35:17;;;;;;;4.22;2.00;;;;;;;18.93;100.00;99407.34;7749568;22;20023;-96
2023/07/24 05:38:20;;;;;;;2.42;1.70;;;;;;;18.79;100.00;99415.44;7750213;22;20047;-96
2023/07/24 05:41:23;;;;;;;3.05;1.83;;;;;;;18.66;100.00;99406.53;7777136;22;20127;-96
2023/07/24 05:44:25;;;;;;;1.92;1.80;;;;;;;18.50;100.00;99381.50;7748885;22;20042;-96
2023/07/24 05:47:27;;;;;;;2.15;1.83;;;;;;;18.31;100.00;99377.06;7749901;22;20058;-96
2023/07/24 05:50:29;;;;;;;4.10;2.13;;;;;;;18.13;100.00;99400.41;7749710;22;20015;-95
2023/07/24 05:53:31;;;;;;;3.13;1.92;;;;;;;17.99;100.00;99407.44;7749647;22;20030;-95
2023/07/24 05:56:35;;;;;;;3.08;1.90;;;;;;;17.92;100.00;99424.94;7749638;22;20026;-96
2023/07/24 05:59:41;;;;;;;3.08;1.85;;;;;;;17.84;100.00;99413.63;7749034;22;20019;-95
2023/07/24 06:02:44;;;;;;;3.42;2.30;;;;;;;17.80;100.00;99416.81;7773499;22;20019;-96
2023/07/24 06:05:50;;;;;;;3.30;2.00;;;;;;;17.78;100.00;99416.97;7750956;22;20297;-96
2023/07/24 06:09:00;;;;;;;3.45;2.28;;;;;;;17.83;100.00;99409.38;7780287;22;20031;-95
2023/07/24 06:12:04;;;;;;;2.50;2.30;;;;;;;18.04;100.00;99418.91;7781442;22;20023;-96
2023/07/24 06:15:09;;;;;;;3.38;1.90;;;;;;;18.34;100.00;99415.16;7754063;22;20484;-96
2023/07/24 06:18:15;;;;;;;3.35;2.00;;;;;;;18.35;100.00;99403.66;7729513;22;20103;-96
2023/07/24 06:21:18;;;;;;;5.82;2.38;;;;;;;18.35;100.00;99393.19;7780295;22;20663;-96
2023/07/24 06:24:20;;;;;;;3.75;2.20;;;;;;;18.44;100.00;99381.50;7753232;22;20020;-96
2023/07/24 06:27:22;;;;;;;3.33;1.98;;;;;;;18.54;100.00;99384.53;7754029;22;20492;-96
2023/07/24 06:30:26;;;;;;;2.97;2.00;;;;;;;18.60;100.00;99377.69;7753137;22;20472;-95
2023/07/24 06:33:31;;;;;;;2.75;1.85;;;;;;;18.58;100.00;99364.75;7780981;22;20016;-95
2023/07/24 06:36:35;;;;;;;3.88;2.53;;;;;;;18.54;100.00;99365.41;7754734;22;20015;-96
2023/07/24 06:39:38;;;;;;;3.65;2.10;;;;;;;18.54;100.00;99371.44;7781764;22;20052;-96
2023/07/24 06:42:41;;;;;;;2.83;2.10;;;;;;;18.56;100.00;99373.84;7780167;22;20098;-96
2023/07/24 06:45:46;;;;;;;3.30;2.20;;;;;;;18.60;100.00;99377.69;7753832;22;20016;-96
2023/07/24 06:48:50;;;;;;;2.30;2.10;;;;;;;18.65;100.00;99370.03;7753696;22;20023;-95
2023/07/24 06:51:54;;;;;;;2.95;2.60;;;;;;;18.69;100.00;99358.94;7780308;22;20027;-95
2023/07/24 06:54:58;;;;;;;2.78;2.20;;;;;;;18.74;100.00;99363.56;7779964;22;20026;-96
2023/07/24 06:58:01;;;;;;;4.80;2.40;;;;;;;18.79;100.00;99368.25;7752557;22;20100;-95
2023/07/24 07:01:07;;;;;;;3.85;2.10;;;;;;;18.79;100.00;99363.00;7751260;22;20093;-96
2023/07/24 07:04:09;;;;;;;3.38;2.50;;;;;;;18.74;100.00;99366.19;7779355;22;20094;-96
2023/07/24 07:07:12;;;;;;;3.28;2.30;;;;;;;18.70;100.00;99360.53;7778321;22;20610;-95
2023/07/24 07:10:14;;;;;;;4.80;2.22;;;;;;;18.68;100.00;99366.97;7779421;22;20073;-96
2023/07/24 07:13:16;;;;;;;5.35;2.60;;;;;;;18.70;100.00;99372.84;7752273;22;20086;-96
2023/07/24 07:16:18;;;;;;;3.47;2.50;;;;;;;18.70;100.00;99373.63;7780214;22;20020;-96
2023/07/24 07:19:21;;;;;;;3.08;2.38;;;;;;;18.72;100.00;99371.63;7751562;22;20806;-96
2023/07/24 07:22:23;;;;;;;5.53;2.70;;;;;;;18.65;100.00;99376.06;7780307;22;20039;-96
2023/07/24 07:25:25;;;;;;;9.07;3.33;;;;;;;18.44;100.00;99384.13;7779831;22;20089;-96
2023/07/24 07:28:55;;;;;;;;;;;;;;;;;;;;;
2023/07/24 07:31:52;;;;;;;9.38;3.95;;;;;;;17.92;100.00;99401.34;7628812;23;20040;-94
2023/07/24 07:34:54;;;;;;;6.80;3.58;;;;;;;17.86;100.00;99406.38;7664886;23;20032;-95
2023/07/24 07:37:59;;;;;;;8.70;3.70;;;;;;;17.82;100.00;99420.06;7668171;23;20017;-94
2023/07/24 07:41:05;;;;;;;7.43;3.60;;;;;;;17.80;100.00;99416.81;7641151;23;20463;-94
2023/07/24 07:44:06;;;;;;;6.32;2.75;;;;;;;17.69;100.00;99423.41;7641025;23;20028;-96
2023/07/24 07:47:09;;;;;;;7.95;3.42;;;;;;;17.61;100.00;99426.97;7640522;23;20025;-94
2023/07/24 07:50:11;;;;;;;4.25;2.78;;;;;;;17.57;100.00;99443.25;7640352;23;20060;-94
2023/07/24 07:53:13;;;;;;;6.45;3.85;;;;;;;17.48;100.00;99449.66;7667490;23;20139;-92
2023/07/24 07:56:14;;;;;;;10.23;4.13;;;;;;;17.38;100.00;99458.63;7667838;23;20021;-90
2023/07/24 07:59:16;;;;;;;6.75;3.40;;;;;;;17.33;100.00;99455.78;7667407;23;20031;-90
2023/07/24 08:02:18;;;;;;;4.43;2.85;;;;;;;17.41;100.00;99450.41;7666772;23;20124;-92
2023/07/24 08:05:20;;;;;;;6.05;2.92;;;;;;;17.46;100.00;99441.97;7640797;23;20052;-93
2023/07/24 08:08:23;;;;;;;5.07;2.95;;;;;;;17.50;100.00;99445.03;7667975;23;20021;-96
2023/07/24 08:11:27;;;;;;;8.95;3.38;;;;;;;17.62;100.00;99451.34;7666814;23;20021;-94
2023/07/24 08:14:33;;;;;;;7.63;3.15;;;;;;;18.06;100.00;99450.97;7667801;23;20071;-96
2023/07/24 08:17:36;;;;;;;7.40;3.42;;;;;;;18.58;100.00;99451.25;7640229;23;20028;-96
2023/07/24 08:20:40;;;;;;;5.97;3.70;;;;;;;19.01;100.00;99458.78;7666984;23;20017;-96
2023/07/24 08:23:44;;;;;;;3.78;2.97;;;;;;;19.14;100.00;99434.38;7667247;23;20395;-95
2023/07/24 08:26:46;;;;;;;4.38;2.80;;;;;;;19.25;100.00;99419.81;7666571;23;20084;-93
2023/07/24 08:29:52;;;;;;;4.95;3.20;;;;;;;19.56;100.00;99416.50;7665151;23;20443;-93
2023/07/24 08:32:54;;;;;;;4.40;3.03;;;;;;;20.01;100.00;99406.84;7640498;23;20328;-94
2023/07/24 08:36:01;;;;;;;4.20;2.83;;;;;;;20.42;100.00;99387.19;7666998;23;20021;-95
2023/07/24 08:39:03;;;;;;;5.75;3.25;;;;;;;20.48;100.00;99368.97;7616279;23;20021;-95
2023/07/24 08:42:12;;;;;;;3.58;3.00;;;;;;;20.03;100.00;99354.09;7641551;23;20338;-94
2023/07/24 08:45:15;;;;;;;3.42;3.13;;;;;;;19.75;100.00;99372.81;7616441;23;20021;-94
2023/07/24 08:48:20;;;;;;;5.63;3.03;;;;;;;19.62;100.00;99371.03;7641194;23;20439;-92
2023/07/24 08:51:24;;;;;;;5.18;3.72;;;;;;;20.03;100.00;99366.44;7666072;23;20017;-94
2023/07/24 08:54:26;;;;;;;4.63;3.83;;;;;;;20.50;100.00;99367.72;7641828;23;20028;-95
2023/07/24 08:57:29;;;;;;;5.13;4.10;;;;;;;20.83;100.00;99351.69;7668589;23;20017;-95
2023/07/24 09:00:32;;;;;;;5.40;3.97;;;;;;;21.05;100.00;99352.06;7641450;23;20038;-94
2023/07/24 09:03:35;;;;;;;5.78;3.97;;;;;;;20.97;100.00;99347.09;7639628;23;20116;-94
2023/07/24 09:06:38;;;;;;;5.68;3.92;;;;;;;20.85;100.00;99341.75;7667399;23;20021;-94
2023/07/24 09:09:40;;;;;;;4.53;4.10;;;;;;;21.04;100.00;99339.94;7665447;23;20085;-95
2023/07/24 09:12:42;;;;;;;5.82;3.95;;;;;;;21.21;100.00;99340.16;7666247;23;20119;-95
2023/07/24 09:15:46;;;;;;;6.20;4.10;;;;;;;21.54;100.00;99341.63;7667021;23;20036;-95
2023/07/24 09:18:51;;;;;;;5.78;4.18;;;;;;;21.77;100.00;99340.91;7667019;23;20104;-95
2023/07/24 09:22:14;;;;;;;4.25;3.78;;;;;;;22.05;100.00;99348.22;7640494;23;20100;-96
2023/07/24 09:25:16;;;;;;;4.22;3.83;;;;;;;22.20;100.00;99339.13;7667081;23;20021;-96
2023/07/24 09:28:19;;;;;;;6.80;3.88;;;;;;;22.21;100.00;99338.91;7667353;23;20017;-96
2023/07/24 09:31:34;;;;;;;4.95;3.72;;;;;;;22.25;100.00;99349.78;7666682;23;20029;-96
2023/07/24 09:34:42;;;;;;;5.05;3.88;;;;;;;22.28;100.00;99350.13;7663958;23;20035;-96
2023/07/24 09:37:44;;;;;;;4.07;3.65;;;;;;;22.25;100.00;99350.59;7640047;23;20370;-96
2023/07/24 09:40:47;;;;;;;5.32;4.43;;;;;;;22.64;100.00;99339.63;7642244;23;20071;-96
2023/07/24 09:43:59;;;;;;;3.85;3.55;;;;;;;22.88;100.00;99333.31;7669794;23;20017;-96
2023/07/24 09:47:02;;;;;;;5.80;3.58;;;;;;;22.87;100.00;99334.34;7670367;23;20072;-96
2023/07/24 09:50:28;;;;;;;4.25;3.95;;;;;;;23.14;100.00;99339.16;7668550;23;20024;-96
2023/07/24 09:53:39;;;;;;;4.22;3.75;;;;;;;23.49;100.00;99328.50;7668832;23;20440;-96
2023/07/24 09:56:42;;;;;;;5.68;3.50;;;;;;;23.40;100.00;99317.50;7666568;23;20044;-96
2023/07/24 10:00:00;;;;;;;4.65;3.80;;;;;;;23.36;100.00;99331.41;7668622;23;20124;-96
2023/07/24 10:03:06;;;;;;;4.18;3.58;;;;;;;23.57;100.00;99325.47;7669405;23;20025;-96
2023/07/24 10:06:15;;;;;;;5.07;3.63;;;;;;;23.68;100.00;99323.84;7668837;23;20415;-96
2023/07/24 10:09:21;;;;;;;4.13;3.25;;;;;;;23.47;100.00;99320.00;7669219;23;20025;-96
2023/07/24 10:12:27;;;;;;;4.70;3.53;;;;;;;23.51;100.00;99323.00;7671197;23;20096;-96
2023/07/24 10:15:31;;;;;;;4.60;3.47;;;;;;;23.54;100.00;99317.22;7644128;23;20032;-96
2023/07/24 10:18:46;;;;;;;4.47;3.22;;;;;;;23.56;100.00;99313.31;7671221;23;20438;-96
2023/07/24 10:21:52;;;;;;;3.78;3.33;;;;;;;23.57;100.00;99303.53;7642968;23;20028;-96
2023/07/24 10:24:58;;;;;;;5.03;3.47;;;;;;;23.24;100.00;99306.88;7672992;23;20027;-96
2023/07/24 10:28:10;;;;;;;4.75;3.50;;;;;;;23.15;100.00;99306.44;7643428;23;20411;-96
2023/07/24 10:31:26;;;;;;;3.88;3.42;;;;;;;23.37;100.00;99304.75;7671023;23;20021;-96
2023/07/24 10:35:11;;;;;;;4.68;3.60;;;;;;;23.40;100.00;99293.75;7655285;23;20032;-96
2023/07/24 10:38:15;;;;;;;3.92;3.53;;;;;;;23.42;100.00;99291.63;7680660;23;20024;-96
2023/07/24 10:41:35;;;;;;;5.00;4.00;;;;;;;23.65;100.00;99280.19;7651743;23;20025;-96
2023/07/24 10:44:41;;;;;;;4.72;4.20;;;;;;;23.92;100.00;99302.59;7674412;23;20676;-96
2023/07/24 10:47:46;;;;;;;4.38;3.97;;;;;;;23.74;100.00;99277.97;7646278;23;20013;-96
2023/07/24 10:50:52;;;;;;;4.90;4.20;;;;;;;23.38;100.00;99277.31;7641435;23;20239;-96
2023/07/24 10:54:00;;;;;;;6.63;4.63;;;;;;;23.07;100.00;99267.22;7644376;23;20017;-96
2023/07/24 10:57:10;;;;;;;4.60;4.20;;;;;;;22.80;100.00;99268.47;7621640;23;20132;-96
2023/07/24 11:00:14;;;;;;;5.75;4.38;;;;;;;22.68;100.00;99272.19;7642488;23;20032;-96
2023/07/24 11:03:19;;;;;;;5.13;4.53;;;;;;;23.07;100.00;99257.44;7645331;23;20024;-96
2023/07/24 11:06:22;;;;;;;5.70;4.55;;;;;;;23.75;100.00;99268.22;7670420;23;20343;-91
2023/07/24 11:09:37;;;;;;;6.20;4.07;;;;;;;23.93;100.00;99267.22;7665692;23;20029;-90
2023/07/24 11:12:39;;;;;;;7.28;4.32;;;;;;;24.06;100.00;99253.66;7667458;23;20025;-90
2023/07/24 11:15:41;;;;;;;4.70;4.25;;;;;;;24.11;100.00;99255.59;7667657;23;20053;-91
2023/07/24 11:18:52;;;;;;;4.65;4.15;;;;;;;24.38;100.00;99261.00;7641235;23;20021;-90
2023/07/24 11:22:12;;;;;;;5.95;4.63;;;;;;;24.28;100.00;99248.44;7657090;23;20029;-96
2023/07/24 11:29:13;;;;;;;6.15;4.60;;;;;;;23.74;100.00;99242.84;7687659;23;20021;-95
2023/07/24 11:32:19;;;;;;;5.25;4.78;;;;;;;23.75;100.00;99250.53;7702386;23;20065;-94
2023/07/24 11:35:22;;;;;;;6.72;4.95;;;;;;;23.68;100.00;99257.78;7779882;22;20022;-94
2023/07/24 11:38:24;;;;;;;5.78;5.18;;;;;;;23.33;100.00;99271.94;7779700;22;20027;-94
2023/07/24 11:41:26;;;;;;;5.63;4.97;;;;;;;23.06;100.00;99284.09;7780238;22;20020;-94
2023/07/24 11:44:29;;;;;;;6.93;6.22;;;;;;;22.90;100.00;99288.22;7780049;22;20020;-95
2023/07/24 11:47:31;;;;;;;7.30;5.68;;;;;;;22.26;100.00;99293.38;7779369;22;20019;-95
2023/07/24 11:50:42;;;;;;;5.72;5.22;;;;;;;21.59;100.00;99294.38;7779215;22;20031;-96
2023/07/24 11:53:44;;;;;;;5.72;5.13;;;;;;;21.36;100.00;99305.56;7779649;22;20047;-95
2023/07/24 11:56:46;;;;;;;5.60;4.72;;;;;;;21.33;100.00;99292.03;7751863;22;20019;-95
2023/07/24 11:59:48;;;;;;;5.63;4.65;;;;;;;21.22;100.00;99281.25;7779588;22;20019;-94
2023/07/24 12:02:51;;;;;;;5.00;4.20;;;;;;;21.32;100.00;99280.72;7751180;22;20030;-94
2023/07/24 12:05:54;;;;;;;4.13;3.72;;;;;;;21.43;100.00;99279.19;7779239;22;20058;-95
2023/07/24 12:09:04;;;;;;;5.60;4.10;;;;;;;21.57;100.00;99274.56;7751337;22;20170;-96
2023/07/24 12:12:11;;;;;;;4.47;3.65;;;;;;;21.59;100.00;99273.31;7777873;22;20042;-95
2023/07/24 12:15:15;;;;;;;4.47;3.60;;;;;;;21.46;100.00;99274.25;7779800;22;20019;-96
2023/07/24 12:18:17;;;;;;;5.43;4.60;;;;;;;21.16;100.00;99283.94;7753205;22;20023;-94
2023/07/24 12:21:20;;;;;;;5.10;4.47;;;;;;;20.64;100.00;99294.81;7779512;22;20011;-95
2023/07/24 12:24:23;;;;;;;5.72;4.22;;;;;;;19.99;100.00;99300.38;7779850;22;20097;-95
2023/07/24 12:27:25;;;;;;;5.50;4.47;;;;;;;19.39;100.00;99287.56;7778880;22;20090;-95
2023/07/24 12:30:30;;;;;;;8.10;4.88;;;;;;;19.03;100.00;99301.19;7780052;22;20031;-94
2023/07/24 12:33:32;;;;;;;6.68;5.10;;;;;;;18.91;100.00;99311.53;7753004;22;20058;-96
2023/07/24 12:36:34;;;;;;;7.68;5.18;;;;;;;18.79;100.00;99313.19;7778921;22;20019;-96
2023/07/24 12:39:39;;;;;;;6.53;5.60;;;;;;;18.75;100.00;99325.03;7765797;22;20020;-96
2023/07/24 12:42:41;;;;;;;6.95;5.78;;;;;;;18.78;100.00;99332.53;7800957;22;19996;-92
2023/07/24 12:45:45;;;;;;;9.60;7.07;;;;;;;18.82;100.00;99320.63;7741942;22;20024;-96
2023/07/24 12:48:48;;;;;;;7.38;6.60;;;;;;;19.00;100.00;99328.66;7744870;22;20465;-96
2023/07/24 12:52:03;;;;;;;8.45;6.47;;;;;;;19.32;100.00;99316.44;7742045;23;20098;-96
2023/07/24 12:55:09;;;;;;;8.10;6.38;;;;;;;19.58;100.00;99314.75;7719375;23;20338;-96
2023/07/24 12:58:11;;;;;;;8.57;6.55;;;;;;;19.82;100.00;99299.28;7720444;23;20664;-96
2023/07/24 13:01:17;;;;;;;7.00;6.30;;;;;;;20.12;100.00;99294.22;7723536;23;20453;-96
2023/07/24 13:04:35;;;;;;;7.07;5.68;;;;;;;20.57;100.00;99283.53;7776710;22;20007;-96
2023/07/24 13:07:40;;;;;;;6.95;5.55;;;;;;;20.93;100.00;99274.88;7780447;23;20020;-96
2023/07/24 13:10:46;;;;;;;5.97;4.97;;;;;;;21.14;100.00;99255.22;7739156;23;20074;-96
2023/07/24 13:13:52;;;;;;;5.47;4.93;;;;;;;21.34;100.00;99251.53;7757892;23;20532;-96
2023/07/24 13:16:55;;;;;;;5.25;4.75;;;;;;;21.48;100.00;99237.19;7750710;23;20035;-96
2023/07/24 13:19:57;;;;;;;5.97;5.03;;;;;;;21.51;100.00;99218.31;7748553;23;20021;-96
2023/07/24 13:22:59;;;;;;;5.78;4.50;;;;;;;21.47;100.00;99209.25;7745655;23;20284;-96
2023/07/24 13:26:02;;;;;;;4.72;4.28;;;;;;;21.38;100.00;99205.31;7744272;23;20020;-96
2023/07/24 13:29:04;;;;;;;4.38;3.92;;;;;;;21.33;100.00;99203.34;7746554;23;20435;-96
2023/07/24 13:32:06;;;;;;;5.68;4.40;;;;;;;21.34;100.00;99207.59;7742546;23;20389;-96
2023/07/24 13:35:10;;;;;;;5.25;4.20;;;;;;;21.18;100.00;99208.22;7744277;22;20284;-95
2023/07/24 13:38:13;;;;;;;4.55;4.15;;;;;;;20.96;100.00;99192.88;7743824;23;20022;-95
2023/07/24 13:41:15;;;;;;;5.30;4.72;;;;;;;20.81;100.00;99213.53;7741640;23;20524;-95
2023/07/24 13:44:17;;;;;;;5.65;4.68;;;;;;;20.64;100.00;99215.94;7743267;23;20016;-96
2023/07/24 13:47:20;;;;;;;5.47;4.50;;;;;;;20.36;100.00;99227.72;7743840;22;20354;-96
2023/07/24 13:50:24;;;;;;;5.68;4.03;;;;;;;20.11;100.00;99235.63;7742646;23;20023;-94
2023/07/24 13:53:26;;;;;;;7.35;4.78;;;;;;;19.95;100.00;99230.88;7747225;23;20446;-96
2023/07/24 13:56:40;;;;;;;5.50;3.97;;;;;;;19.68;100.00;99240.81;7750534;23;20023;-96
2023/07/24 14:00:00;;;;;;;6.28;4.53;;;;;;;19.06;100.00;99264.09;7750335;23;20051;-94
2023/07/24 14:03:12;;;;;;;6.60;4.60;;;;;;;18.40;100.00;99265.81;7753297;23;20024;-95
2023/07/24 14:06:14;;;;;;;6.45;4.45;;;;;;;18.14;100.00;99266.63;7750825;23;20032;-96
2023/07/24 14:09:16;;;;;;;6.80;4.43;;;;;;;17.97;100.00;99296.84;7750755;22;20024;-96
2023/07/24 14:12:22;;;;;;;8.63;5.15;;;;;;;17.90;100.00;99319.59;7750790;23;20016;-96
2023/07/24 14:15:24;;;;;;;12.27;5.20;;;;;;;17.76;100.00;99310.84;7746328;23;20023;-93
2023/07/24 14:18:26;;;;;;;6.82;4.28;;;;;;;17.61;100.00;99313.63;7743931;23;20020;-92
2023/07/24 14:21:28;;;;;;;12.15;5.40;;;;;;;17.49;100.00;99302.13;7746142;23;20318;-95
2023/07/24 14:24:33;;;;;;;3.65;2.42;;;;;;;17.26;100.00;99287.53;7755147;23;20016;-96